Flight Track Log - Related Links

Times and Time Zones

All times are in EDT time to prevent confusion due to time zone crossing. See the N1944E flight status page for this flight to view local times or setup timezone preferences in your user account.


Time Position Orientation Groundspeed Altitude Reporting Facility
EDT Latitude Longitude Course Direction KTS MPH feet Rate Location/Type
Fri 07:07:11 PM 47.6414 -104.3244 237° Southwest 133 153 3,900  Level Salt Lake Center
Fri 07:08:13 PM 47.6203 -104.3725 237° Southwest 136 157 4,700 726 Climbing Salt Lake Center
Fri 07:09:15 PM 47.6000 -104.4197 238° Southwest 137 158 5,400 677 Climbing Salt Lake Center
Fri 07:10:17 PM 47.5800 -104.4681 238° Southwest 137 158 6,100 677 Climbing Salt Lake Center
Fri 07:11:19 PM 47.5608 -104.5183 241° Southwest 139 160 6,800 732 Climbing Salt Lake Center
Fri 07:12:20 PM 47.5364 -104.5794 239° Southwest 142 163 7,600 732 Climbing Salt Lake Center
Fri 07:13:22 PM 47.5158 -104.6300 239° Southwest 143 165 8,300 677 Climbing Salt Lake Center
Fri 07:14:24 PM 47.4950 -104.6811 239° Southwest 144 166 9,000 629 Climbing Salt Lake Center
Fri 07:15:26 PM 47.4733 -104.7322 238° Southwest 146 168 9,600 634 Climbing Salt Lake Center
Fri 07:16:27 PM 47.4522 -104.7836 239° Southwest 146 168 10,300 683 Climbing Salt Lake Center
Fri 07:17:29 PM 47.4306 -104.8344 238° Southwest 147 169 11,000 629 Climbing Salt Lake Center
Fri 07:18:31 PM 47.4100 -104.8886 241° Southwest 149 171 11,600 732 Climbing Salt Lake Center
Fri 07:19:32 PM 47.3847 -104.9497 239° Southwest 148 170 12,500 780 Climbing Salt Lake Center
Fri 07:20:34 PM 47.3628 -105.0031 239° Southwest 149 171 13,200 677 Climbing Salt Lake Center
Fri 07:21:36 PM 47.3408 -105.0544 238° Southwest 149 171 13,900 387 Climbing Salt Lake Center
Fri 07:22:38 PM 47.3153 -105.1108 236° Southwest 155 178 14,000 49 Climbing Salt Lake Center
Fri 07:23:39 PM 47.2881 -105.1781 239° Southwest 173 199 14,000  Level Salt Lake Center
Fri 07:24:41 PM 47.2636 -105.2447 242° Southwest 182 209 14,000  Level Salt Lake Center
Fri 07:25:43 PM 47.2397 -105.3064 240° Southwest 180 207 14,000  Level Salt Lake Center
Fri 07:26:45 PM 47.2117 -105.3792 240° Southwest 175 201 14,000  Level Salt Lake Center
Fri 07:27:47 PM 47.1872 -105.4386 239° Southwest 172 198 14,000  Level Salt Lake Center
Fri 07:28:48 PM 47.1622 -105.4967 238° Southwest 170 196 14,000  Level Salt Lake Center
Fri 07:29:50 PM 47.1361 -105.5556 237° Southwest 171 197 14,000  Level Salt Lake Center
Fri 07:30:52 PM 47.1097 -105.6147 237° Southwest 172 198 14,000  Level Salt Lake Center
Fri 07:31:54 PM 47.0836 -105.6753 238° Southwest 174 200 14,000  Level Salt Lake Center
Fri 07:32:56 PM 47.0581 -105.7358 238° Southwest 175 201 14,000  Level Salt Lake Center
Fri 07:33:57 PM 47.0272 -105.8094 238° Southwest 175 201 14,000  Level Salt Lake Center
Fri 07:34:59 PM 47.0025 -105.8706 239° Southwest 176 203 14,000  Level Salt Lake Center
Fri 07:36:01 PM 46.9781 -105.9292 239° Southwest 173 199 14,000  Level Salt Lake Center
Fri 07:37:03 PM 46.9533 -105.9889 239° Southwest 173 199 14,000  Level Salt Lake Center
Fri 07:38:05 PM 46.9269 -106.0475 237° Southwest 172 198 14,000  Level Salt Lake Center
Fri 07:39:06 PM 46.9025 -106.1097 240° Southwest 174 200 14,000  Level Salt Lake Center
Fri 07:40:08 PM 46.8819 -106.1903 250° West 175 201 14,000  Level Salt Lake Center
Fri 07:41:10 PM 46.8669 -106.2581 252° West 175 201 14,000  Level Salt Lake Center
Fri 07:42:12 PM 46.8483 -106.3253 248° West 177 204 14,000  Level Salt Lake Center
Fri 07:43:14 PM 46.8294 -106.3928 248° West 178 205 14,000  Level Salt Lake Center
Fri 07:44:17 PM 46.8056 -106.4567 241° Southwest 179 206 14,000  Level Salt Lake Center
Fri 07:45:17 PM 46.7822 -106.5214 242° Southwest 179 206 14,000  Level Salt Lake Center
Fri 07:46:19 PM 46.7619 -106.5872 246° West 177 204 14,000  Level Salt Lake Center
Fri 07:47:21 PM 46.7336 -106.6625 241° Southwest 177 204 14,000  Level Salt Lake Center
Fri 07:48:23 PM 46.7064 -106.7228 237° Southwest 177 204 14,000  Level Salt Lake Center
Fri 07:49:25 PM 46.6819 -106.7844 240° Southwest 177 204 14,000  Level Salt Lake Center
Fri 07:50:27 PM 46.6539 -106.8444 236° Southwest 179 206 14,000  Level Salt Lake Center
Fri 07:51:28 PM 46.6269 -106.9064 238° Southwest 182 209 14,000  Level Salt Lake Center
Fri 07:52:30 PM 46.5894 -106.9744 231° Southwest 182 209 14,000  Level Salt Lake Center
Fri 07:53:32 PM 46.5597 -107.0328 233° Southwest 181 208 14,000  Level Salt Lake Center
Fri 07:54:34 PM 46.5303 -107.0931 235° Southwest 181 208 14,000 48 Level Salt Lake Center
Fri 07:55:36 PM 46.5022 -107.1522 235° Southwest 180 207 14,100 48 Climbing Salt Lake Center
Fri 07:56:38 PM 46.4731 -107.2125 235° Southwest 181 208 14,100  Level Salt Lake Center
Fri 07:57:40 PM 46.4439 -107.2728 235° Southwest 182 209 14,100  Level Salt Lake Center
Fri 07:58:41 PM 46.4100 -107.3453 236° Southwest 182 209 14,100  Level Salt Lake Center
Fri 07:59:43 PM 46.3808 -107.4094 237° Southwest 186 214 14,100  Level Salt Lake Center
Fri 08:00:45 PM 46.3544 -107.4706 238° Southwest 181 208 14,100  Level Salt Lake Center
Fri 08:01:47 PM 46.3383 -107.5414 252° West 185 213 14,100  Level Salt Lake Center
Fri 08:02:49 PM 46.3183 -107.6128 248° West 183 211 14,100  Level Salt Lake Center
Fri 08:03:51 PM 46.2972 -107.6781 245° Southwest 182 209 14,100 -49 Level Salt Lake Center
Fri 08:04:52 PM 46.2700 -107.7469 240° Southwest 184 212 14,000 -439 Descending Salt Lake Center
Fri 08:05:54 PM 46.2433 -107.8178 241° Southwest 202 232 13,200 -726 Descending Salt Lake Center
Fri 08:06:56 PM 46.2092 -107.8939 237° Southwest 210 242 12,500 -726 Descending Salt Lake Center
Fri 08:07:58 PM 46.1708 -107.9589 230° Southwest 214 246 11,700 -823 Descending Salt Lake Center
Fri 08:09:00 PM 46.1272 -108.0275 227° Southwest 215 247 10,800 -878 Descending Salt Lake Center
Fri 08:10:01 PM 46.0836 -108.0811 220° Southwest 212 244 9,900 -878 Descending Salt Lake Center
Fri 08:11:03 PM 46.0389 -108.1394 222° Southwest 203 234 9,000 -968 Descending Salt Lake Center
Fri 08:12:05 PM 46.0056 -108.2050 234° Southwest 203 234 7,900 -1,016 Descending Salt Lake Center
Fri 08:13:07 PM 45.9667 -108.2717 230° Southwest 203 234 6,900 -774 Descending Salt Lake Center
Fri 08:14:09 PM 45.9261 -108.3217 221° Southwest 196 226 6,300 -683 Descending Salt Lake Center
Fri 08:15:10 PM 45.8831 -108.3681 217° Southwest 184 212 5,500 -683 Descending Salt Lake Center
Fri 08:16:12 PM 45.8467 -108.4147 222° Southwest 177 204 4,900 -435 Descending Salt Lake Center
Fri 08:17:14 PM 45.8158 -108.4586 225° Southwest 159 183 4,600 -484 Descending Salt Lake Center
Fri 08:18:16 PM 45.7956 -108.4961 232° Southwest 116 133 3,900 -677 Descending Salt Lake Center
Fri 08:20:00 PM 45.8000 -108.5333 240° Southwest  Level FlightAware Approximate

Login

Don't have an account? Register now (free) for customized features, flight alerts, and more!